Time;durP1;ratioP1;P1;durP2;ratioP2;P2;SDS_P1;SDS_P2;PMS_P1;PMS_P2;Temp;Humidity;BMP_temperature;BMP_pressure;BME280_temperature;BME280_humidity;BME280_pressure;Samples;Min_cycle;Max_cycle;Signal;HPM_P1;HPM_P2
2022/01/20 00:02:07;;;;;;;38.72;16.58;;;;;;;-0.24;61.48;100539.06;5050494;28;20162;-37
2022/01/20 00:04:04;;;;;;;36.83;16.83;;;;;;;-0.11;61.58;100539.00;5045701;28;20047;-37
2022/01/20 00:25:56;;;;;;;36.50;15.57;;;;;;;0.31;60.71;100528.84;5049350;28;20052;-36
2022/01/20 00:28:29;;;;;;;37.22;16.90;;;;;;;-0.06;61.79;100523.75;5048942;28;20035;-37
2022/01/20 00:31:10;;;;;;;35.20;16.35;;;;;;;0.09;61.30;100513.94;5050715;28;20025;-37
2022/01/20 00:33:45;;;;;;;33.58;16.40;;;;;;;-0.02;62.13;100522.59;5050681;28;20354;-37
2022/01/20 00:38:37;;;;;;;41.67;18.50;;;;;;;-0.06;62.31;100519.38;5050877;28;20025;-36
2022/01/20 00:41:03;;;;;;;38.45;16.83;;;;;;;-0.06;61.96;100515.91;5050487;28;20108;-36
2022/01/20 00:43:29;;;;;;;44.15;18.15;;;;;;;-0.18;60.92;100515.06;5050652;28;20155;-36
2022/01/20 00:45:54;;;;;;;39.45;18.83;;;;;;;-0.20;60.78;100511.72;5050260;28;20028;-36
2022/01/20 00:48:20;;;;;;;38.63;17.33;;;;;;;-0.18;61.72;100506.38;5050468;28;20051;-36
2022/01/20 00:50:46;;;;;;;39.03;17.88;;;;;;;-0.77;62.23;100509.88;5050224;28;20013;-36
2022/01/20 00:53:11;;;;;;;39.33;17.25;;;;;;;-0.48;63.69;100503.31;5050080;28;20024;-36
2022/01/20 00:55:38;;;;;;;41.15;18.88;;;;;;;-0.46;60.90;100505.81;5050206;28;20132;-36
2022/01/20 00:58:04;;;;;;;42.38;19.52;;;;;;;-0.50;61.36;100501.78;5050038;28;20024;-36
2022/01/20 01:00:30;;;;;;;46.05;20.77;;;;;;;-0.84;62.07;100497.25;5049953;28;20048;-36
2022/01/20 01:02:56;;;;;;;42.20;19.38;;;;;;;-1.10;63.45;100503.53;5050084;28;20507;-37
2022/01/20 01:05:21;;;;;;;39.30;19.38;;;;;;;-1.21;62.79;100494.66;5050245;28;20048;-36
2022/01/20 01:07:49;;;;;;;40.70;19.33;;;;;;;-1.46;64.23;100489.50;5049990;28;20441;-36
2022/01/20 01:10:22;;;;;;;45.05;19.88;;;;;;;-1.47;64.05;100485.22;5048789;28;20024;-37
2022/01/20 01:12:56;;;;;;;44.05;18.92;;;;;;;-1.42;64.90;100472.69;5050247;28;20031;-36
2022/01/20 01:15:29;;;;;;;41.50;18.80;;;;;;;-1.69;65.02;100478.06;5049932;28;20104;-36
2022/01/20 01:21:16;;;;;;;36.72;18.20;;;;;;;-1.11;64.74;100465.25;5049942;28;20047;-36
2022/01/20 01:23:36;;;;;;;44.88;17.92;;;;;;;-1.14;64.58;100465.47;5054265;28;20114;-36
2022/01/20 01:26:06;;;;;;;45.10;18.42;;;;;;;-1.36;65.27;100469.63;5056608;28;20063;-36
2022/01/20 01:28:32;;;;;;;41.83;18.15;;;;;;;-0.98;65.07;100468.66;5056498;28;20021;-36
2022/01/20 01:33:35;;;;;;;40.08;18.00;;;;;;;-1.10;64.75;100459.09;5056551;28;20017;-36
2022/01/20 01:36:03;;;;;;;41.75;19.58;;;;;;;-0.88;64.79;100445.28;5056530;28;20029;-36
2022/01/20 01:38:39;;;;;;;40.42;17.33;;;;;;;-0.99;63.36;100446.94;5056901;28;20029;-36
2022/01/20 01:41:10;;;;;;;36.10;17.42;;;;;;;-0.95;65.18;100444.06;5056334;28;20020;-36
2022/01/20 01:43:42;;;;;;;41.38;18.90;;;;;;;-0.88;64.26;100445.28;5056378;28;20102;-36
2022/01/20 01:46:08;;;;;;;39.78;18.27;;;;;;;-0.98;65.69;100445.13;5055791;28;20066;-36
2022/01/20 01:48:34;;;;;;;44.38;18.58;;;;;;;-1.16;65.40;100436.00;5056002;28;20053;-37
2022/01/20 01:51:00;;;;;;;42.90;19.10;;;;;;;-1.01;66.53;100432.28;5054628;28;20043;-36
2022/01/20 01:53:26;;;;;;;46.25;18.88;;;;;;;-1.17;64.74;100429.13;5055996;28;20016;-36
2022/01/20 01:55:51;;;;;;;40.42;18.60;;;;;;;-0.96;66.75;100434.56;5056088;28;20045;-36
2022/01/20 01:58:17;;;;;;;46.20;18.85;;;;;;;-1.00;65.57;100428.75;5056100;28;20067;-36
2022/01/20 02:00:43;;;;;;;40.15;18.05;;;;;;;-0.93;66.37;100432.59;5056443;28;20116;-36
2022/01/20 02:03:08;;;;;;;42.15;18.10;;;;;;;-1.04;66.32;100427.31;5056176;28;20040;-36
2022/01/20 02:05:39;;;;;;;43.67;18.38;;;;;;;-0.93;67.01;100427.34;5055449;28;20381;-36
2022/01/20 02:08:30;;;;;;;40.42;18.58;;;;;;;-1.02;67.45;100420.19;5055638;28;20053;-37
2022/01/20 02:19:09;;;;;;;39.40;17.42;;;;;;;-1.04;66.20;100409.84;5055460;28;20503;-36
2022/01/20 02:21:51;;;;;;;40.22;17.38;;;;;;;-0.97;65.51;100407.63;5055506;28;20104;-36
2022/01/20 02:24:17;;;;;;;43.00;17.67;;;;;;;-1.16;66.46;100407.28;5055540;28;20094;-36
2022/01/20 02:26:43;;;;;;;40.25;18.38;;;;;;;-1.61;67.50;100400.03;5055206;28;20032;-37
2022/01/20 02:29:08;;;;;;;45.58;19.88;;;;;;;-1.33;66.65;100398.06;5054978;28;20377;-36
2022/01/20 02:31:34;;;;;;;42.38;18.50;;;;;;;-1.35;66.68;100399.94;5055970;28;20420;-37
2022/01/20 02:34:00;;;;;;;43.90;18.20;;;;;;;-1.23;67.49;100399.91;5053222;28;20496;-37
2022/01/20 02:36:27;;;;;;;43.22;17.70;;;;;;;-1.08;67.41;100404.97;5052391;28;20032;-37
2022/01/20 02:39:00;;;;;;;43.88;19.50;;;;;;;-1.06;66.17;100397.84;5052251;28;20429;-37
2022/01/20 02:46:54;;;;;;;67.32;31.52;;;;;;;-1.28;67.77;100390.72;5052218;28;20756;-36
2022/01/20 02:49:19;;;;;;;64.80;29.45;;;;;;;-1.45;66.42;100377.09;5052160;28;20037;-36
2022/01/20 02:51:52;;;;;;;51.17;23.30;;;;;;;-1.59;69.33;100382.50;5052260;28;20465;-37
2022/01/20 02:54:17;;;;;;;57.03;23.92;;;;;;;-1.74;67.36;100386.19;5052059;28;20477;-36
2022/01/20 02:56:43;;;;;;;42.97;18.65;;;;;;;-1.97;67.74;100376.44;5052089;28;20118;-36
2022/01/20 02:59:09;;;;;;;35.13;15.95;;;;;;;-1.77;67.89;100374.22;5052141;28;20028;-36
2022/01/20 03:01:34;;;;;;;33.92;15.18;;;;;;;-2.05;68.26;100364.88;5051767;28;20063;-37
2022/01/20 03:04:00;;;;;;;33.53;15.38;;;;;;;-2.18;68.94;100370.09;5052168;28;20062;-36
2022/01/20 03:06:26;;;;;;;34.42;15.68;;;;;;;-2.27;69.79;100363.75;5052372;28;20041;-37
2022/01/20 03:08:52;;;;;;;32.00;15.50;;;;;;;-2.12;67.82;100369.66;5051808;28;20121;-36
2022/01/20 03:11:17;;;;;;;38.50;15.88;;;;;;;-1.99;69.66;100378.31;5051363;28;20512;-36
2022/01/20 03:13:43;;;;;;;33.58;15.32;;;;;;;-1.89;68.38;100364.63;5051430;28;20400;-36
2022/01/20 03:16:08;;;;;;;30.25;13.75;;;;;;;-2.02;69.31;100351.59;5051393;28;20025;-36
2022/01/20 03:18:34;;;;;;;31.90;14.35;;;;;;;-1.99;69.91;100359.22;5051904;28;20029;-36
2022/01/20 03:20:59;;;;;;;32.20;14.10;;;;;;;-1.89;67.94;100354.19;5051693;28;20043;-36
2022/01/20 03:23:24;;;;;;;34.80;14.75;;;;;;;-1.98;67.56;100353.06;5051741;28;20029;-36
2022/01/20 03:25:50;;;;;;;32.78;15.18;;;;;;;-2.48;69.20;100358.22;5050856;28;20061;-35
2022/01/20 03:28:15;;;;;;;33.25;16.63;;;;;;;-2.41;69.06;100361.25;5050659;28;20032;-36
2022/01/20 03:30:41;;;;;;;31.85;15.07;;;;;;;-2.39;68.88;100341.97;5050738;28;20462;-36
2022/01/20 03:33:06;;;;;;;36.70;14.60;;;;;;;-2.38;69.48;100346.25;5050737;28;20029;-36
2022/01/20 03:35:32;;;;;;;30.90;13.48;;;;;;;-2.71;69.41;100348.53;5050437;28;20025;-36
2022/01/20 03:37:58;;;;;;;37.80;15.38;;;;;;;-2.57;69.91;100346.66;5050666;28;20028;-36
2022/01/20 03:40:23;;;;;;;33.40;14.60;;;;;;;-2.42;69.62;100349.16;5050309;28;20057;-36
2022/01/20 03:42:49;;;;;;;34.42;16.40;;;;;;;-2.30;69.00;100348.31;5050318;28;20028;-36
2022/01/20 03:45:15;;;;;;;38.40;16.35;;;;;;;-2.52;69.29;100350.72;5049953;28;20029;-36
2022/01/20 03:47:42;;;;;;;37.22;16.75;;;;;;;-2.85;70.09;100349.47;5050336;28;20535;-36
2022/01/20 03:50:59;;;;;;;43.33;16.48;;;;;;;-2.76;69.87;100344.47;5049802;28;20029;-36
2022/01/20 03:52:53;;;;;;;36.60;15.82;;;;;;;-2.58;69.40;100349.38;5049941;28;20132;-36
2022/01/20 03:55:19;;;;;;;39.75;16.85;;;;;;;-2.67;68.58;100348.22;5050292;28;20449;-36
2022/01/20 03:57:44;;;;;;;37.22;16.83;;;;;;;-2.93;69.13;100357.78;5050179;28;20025;-39
2022/01/20 04:00:10;;;;;;;42.17;18.48;;;;;;;-3.20;71.02;100358.69;5050094;28;20028;-37
2022/01/20 04:02:36;;;;;;;35.83;17.38;;;;;;;-3.15;70.71;100359.19;5050238;28;20021;-36
2022/01/20 04:05:01;;;;;;;40.60;18.67;;;;;;;-3.30;70.37;100349.78;5051357;28;20039;-36
2022/01/20 04:07:27;;;;;;;43.40;17.20;;;;;;;-3.20;70.07;100357.81;5050938;28;20663;-36
2022/01/20 04:09:52;;;;;;;35.40;16.48;;;;;;;-3.28;70.49;100353.09;5051027;28;20033;-38
2022/01/20 04:12:18;;;;;;;35.92;16.27;;;;;;;-3.30;70.99;100352.38;5051206;28;20456;-37
2022/01/20 04:14:48;;;;;;;40.63;15.75;;;;;;;-3.37;70.10;100358.91;5050446;28;20717;-37
2022/01/20 04:17:21;;;;;;;45.95;18.40;;;;;;;-3.38;71.78;100352.06;5050083;28;20029;-37
2022/01/20 04:19:46;;;;;;;37.88;16.73;;;;;;;-3.59;71.05;100346.44;5049626;28;20035;-37
2022/01/20 04:22:12;;;;;;;48.20;18.67;;;;;;;-3.07;70.84;100350.03;5049573;28;20092;-37
2022/01/20 04:24:37;;;;;;;35.30;16.80;;;;;;;-3.10;69.96;100347.63;5049608;28;20024;-38
2022/01/20 04:27:03;;;;;;;34.03;14.95;;;;;;;-3.05;71.12;100349.00;5048155;28;20033;-36
2022/01/20 04:29:29;;;;;;;39.63;16.90;;;;;;;-3.19;71.25;100342.09;5049958;28;20025;-36
2022/01/20 04:31:54;;;;;;;42.30;16.33;;;;;;;-3.11;70.51;100345.97;5049176;28;20027;-35
2022/01/20 04:34:20;;;;;;;41.88;17.95;;;;;;;-3.09;70.20;100347.53;5050104;28;20041;-37
2022/01/20 04:36:48;;;;;;;39.33;17.23;;;;;;;-3.19;71.21;100347.31;5048562;28;20561;-36
2022/01/20 04:39:17;;;;;;;42.38;18.15;;;;;;;-3.15;71.12;100348.78;5049765;28;20029;-36
2022/01/20 04:41:43;;;;;;;39.17;17.25;;;;;;;-3.15;70.43;100340.97;5049698;28;20031;-36
2022/01/20 04:44:13;;;;;;;39.15;16.27;;;;;;;-3.37;70.84;100345.91;5048864;28;20523;-36
2022/01/20 04:46:47;;;;;;;36.03;16.17;;;;;;;-3.31;71.57;100340.31;5048698;28;20413;-36
2022/01/20 04:57:19;;;;;;;38.88;16.08;;;;;;;-3.35;72.39;100331.00;5048032;28;20115;-35
2022/01/20 04:59:45;;;;;;;40.17;15.98;;;;;;;-3.44;71.85;100326.44;5049341;28;20075;-36
2022/01/20 05:02:11;;;;;;;37.08;16.27;;;;;;;-3.43;72.59;100336.72;5048966;28;20045;-36
2022/01/20 05:04:37;;;;;;;41.47;17.52;;;;;;;-3.30;71.53;100330.72;5048669;28;20107;-35
2022/01/20 05:07:03;;;;;;;50.65;18.75;;;;;;;-3.10;71.31;100330.25;5049031;28;20433;-36
2022/01/20 05:09:28;;;;;;;39.13;18.10;;;;;;;-3.23;72.22;100335.44;5048685;28;20136;-36
2022/01/20 05:12:00;;;;;;;40.17;17.55;;;;;;;-3.20;71.21;100337.84;5049370;28;20075;-35
2022/01/20 05:14:26;;;;;;;37.78;17.42;;;;;;;-3.36;71.65;100344.97;5049145;28;20041;-36
2022/01/20 05:16:53;;;;;;;37.13;17.13;;;;;;;-3.30;72.46;100348.94;5049033;28;20029;-36
2022/01/20 05:19:19;;;;;;;39.35;17.77;;;;;;;-3.42;71.88;100346.19;5047612;28;20044;-37
2022/01/20 05:21:45;;;;;;;43.05;19.13;;;;;;;-3.42;72.02;100346.19;5047400;28;20032;-37
2022/01/20 05:24:10;;;;;;;43.88;18.85;;;;;;;-3.55;72.92;100345.31;5047757;28;20162;-36
2022/01/20 05:26:36;;;;;;;41.67;17.88;;;;;;;-3.50;73.46;100345.88;5047186;28;20028;-36
2022/01/20 05:29:01;;;;;;;46.25;19.48;;;;;;;-3.36;73.19;100347.56;5045801;28;20029;-35
2022/01/20 05:31:27;;;;;;;47.88;19.63;;;;;;;-3.15;72.06;100345.34;5029084;28;20028;-36
2022/01/20 05:33:52;;;;;;;49.55;20.27;;;;;;;-3.32;72.74;100338.63;5028603;28;20025;-37
2022/01/20 05:36:18;;;;;;;67.07;25.13;;;;;;;-3.32;74.35;100338.63;5037543;28;20451;-36
2022/01/20 05:38:43;;;;;;;111.85;44.20;;;;;;;-3.17;75.34;100345.44;5048688;28;20087;-36
2022/01/20 05:41:08;;;;;;;130.23;45.15;;;;;;;-3.18;72.57;100345.53;5048866;28;20028;-36
2022/01/20 05:43:34;;;;;;;88.15;32.78;;;;;;;-3.08;72.57;100344.00;5049058;28;20032;-37
2022/01/20 05:46:02;;;;;;;45.70;22.23;;;;;;;-2.92;74.50;100343.00;5048869;28;20033;-37
2022/01/20 05:48:33;;;;;;;45.70;20.10;;;;;;;-2.96;73.30;100337.16;5049000;28;20032;-37
2022/01/20 05:50:58;;;;;;;47.63;21.48;;;;;;;-2.84;73.79;100345.91;5049072;28;20103;-38
2022/01/20 05:53:24;;;;;;;44.45;20.15;;;;;;;-2.96;74.45;100337.16;5048275;28;20465;-36
2022/01/20 05:55:49;;;;;;;47.25;20.92;;;;;;;-2.53;77.27;100339.47;5048537;28;20032;-36
2022/01/20 05:58:15;;;;;;;49.88;23.05;;;;;;;-2.16;72.60;100326.50;5045438;28;20036;-36
2022/01/20 06:00:42;;;;;;;57.63;25.92;;;;;;;-1.53;67.78;100329.00;5038373;28;20043;-37
2022/01/20 06:05:52;;;;;;;64.55;31.02;;;;;;;-2.02;67.96;100320.28;5029214;28;20041;-38
2022/01/20 06:08:17;;;;;;;68.03;31.27;;;;;;;-2.09;69.38;100327.75;5029203;28;20053;-37
2022/01/20 06:10:43;;;;;;;65.78;28.42;;;;;;;-1.89;67.92;100323.69;5031812;28;20092;-37
2022/01/20 06:13:08;;;;;;;64.13;28.60;;;;;;;-1.80;67.72;100322.22;5032110;28;20026;-36
2022/01/20 06:15:34;;;;;;;59.92;24.90;;;;;;;-1.65;67.42;100318.50;5032068;28;20030;-37
2022/01/20 06:17:59;;;;;;;53.00;23.75;;;;;;;-1.34;66.83;100324.09;5032161;28;20041;-36
2022/01/20 06:20:25;;;;;;;44.42;22.15;;;;;;;-1.41;66.41;100320.28;5031698;28;20517;-36
2022/01/20 06:22:50;;;;;;;51.63;21.00;;;;;;;-1.32;66.47;100309.16;5031146;28;20400;-36
2022/01/20 06:25:16;;;;;;;48.00;22.05;;;;;;;-1.13;65.59;100323.47;5030020;28;20151;-37
2022/01/20 06:27:41;;;;;;;49.22;22.27;;;;;;;-0.81;63.77;100314.06;5031724;28;20036;-37
2022/01/20 06:30:07;;;;;;;46.70;22.33;;;;;;;-0.35;64.58;100314.91;5031492;28;20026;-37
2022/01/20 06:32:33;;;;;;;51.55;22.92;;;;;;;-0.44;63.48;100316.47;5031648;28;20053;-37
2022/01/20 06:34:58;;;;;;;52.83;23.48;;;;;;;-0.28;61.28;100315.28;5030733;28;20424;-36
2022/01/20 06:37:24;;;;;;;58.72;24.15;;;;;;;-0.16;61.31;100318.72;5050020;28;20507;-36
2022/01/20 06:39:49;;;;;;;52.75;23.25;;;;;;;-0.42;62.40;100313.72;5051689;28;20028;-37
2022/01/20 06:42:15;;;;;;;58.63;22.15;;;;;;;-0.40;63.03;100320.53;5050341;28;20082;-37
2022/01/20 06:44:42;;;;;;;51.53;22.00;;;;;;;-0.16;61.73;100321.34;5051631;28;20033;-35
2022/01/20 06:47:08;;;;;;;54.50;23.65;;;;;;;0.07;60.63;100306.44;5051546;28;20036;-37
2022/01/20 06:49:33;;;;;;;44.50;23.25;;;;;;;0.18;61.44;100322.13;5051489;28;20041;-37
2022/01/20 06:51:59;;;;;;;54.67;22.88;;;;;;;0.37;60.60;100326.72;5051676;28;20035;-37
2022/01/20 06:54:24;;;;;;;47.25;21.33;;;;;;;0.51;61.50;100318.56;5051230;28;20024;-37
2022/01/20 06:56:50;;;;;;;52.10;22.35;;;;;;;0.51;59.28;100318.56;5051247;28;20489;-37
2022/01/20 06:59:16;;;;;;;52.50;24.10;;;;;;;0.81;60.37;100316.22;5051502;28;20412;-36
2022/01/20 07:01:42;;;;;;;46.60;22.73;;;;;;;1.39;58.85;100323.59;5051375;28;20163;-37
2022/01/20 07:04:10;;;;;;;47.85;23.08;;;;;;;1.39;58.07;100313.97;5051322;28;20104;-37
2022/01/20 07:06:35;;;;;;;51.20;24.85;;;;;;;1.81;55.75;100320.88;5051569;28;20031;-38
2022/01/20 07:09:01;;;;;;;58.60;24.60;;;;;;;1.94;56.97;100318.88;5051045;28;20057;-38
2022/01/20 07:11:26;;;;;;;45.63;23.20;;;;;;;2.13;56.21;100315.47;5051392;28;20013;-38
2022/01/20 07:13:53;;;;;;;48.85;22.13;;;;;;;2.47;54.14;100323.00;5051018;28;20056;-37
2022/01/20 07:16:19;;;;;;;57.20;23.20;;;;;;;2.49;53.84;100332.38;5051718;28;20029;-37
2022/01/20 07:18:44;;;;;;;60.72;26.27;;;;;;;2.35;52.56;100319.66;5050932;28;20433;-37
2022/01/20 07:21:09;;;;;;;71.05;28.92;;;;;;;2.20;52.27;100321.84;5050523;28;20024;-37
2022/01/20 07:23:35;;;;;;;69.32;32.38;;;;;;;2.41;51.52;100327.00;5051221;28;20021;-37
2022/01/20 07:26:00;;;;;;;66.05;31.55;;;;;;;2.22;52.76;100314.66;5050626;28;20043;-37
2022/01/20 07:28:26;;;;;;;80.53;33.78;;;;;;;2.32;52.67;100301.53;5050798;28;20547;-37
2022/01/20 07:30:51;;;;;;;77.55;35.15;;;;;;;2.41;52.89;100305.16;5050884;28;20435;-37
2022/01/20 07:33:19;;;;;;;81.65;36.30;;;;;;;2.19;52.73;100290.47;5050927;28;20025;-37
2022/01/20 07:35:45;;;;;;;71.88;34.03;;;;;;;2.32;53.27;100288.41;5050738;28;20025;-51
2022/01/20 07:38:10;;;;;;;76.57;34.17;;;;;;;2.11;53.57;100284.09;5050698;28;20555;-51
2022/01/20 07:40:36;;;;;;;80.05;36.35;;;;;;;2.09;53.04;100280.75;5050116;28;20035;-53
2022/01/20 07:43:01;;;;;;;75.78;33.65;;;;;;;2.08;53.72;100280.91;5050448;28;20036;-54
2022/01/20 07:45:27;;;;;;;74.95;33.80;;;;;;;2.45;52.65;100288.13;5050421;28;20449;-52
2022/01/20 07:47:52;;;;;;;77.45;35.17;;;;;;;2.60;52.67;100302.53;5050136;28;20409;-50
2022/01/20 07:50:18;;;;;;;66.32;31.52;;;;;;;2.82;51.47;100296.16;5050278;28;20029;-50
2022/01/20 07:52:43;;;;;;;71.93;31.30;;;;;;;3.15;52.03;100285.31;5050153;28;20299;-49
2022/01/20 07:55:09;;;;;;;71.95;31.30;;;;;;;3.34;51.33;100287.91;5049912;28;20032;-53
2022/01/20 07:57:35;;;;;;;68.30;28.63;;;;;;;3.47;51.05;100279.69;5048883;28;20111;-50
2022/01/20 08:00:00;;;;;;;65.93;29.60;;;;;;;3.43;49.71;100279.16;5050096;28;20041;-51
2022/01/20 08:02:26;;;;;;;62.28;30.35;;;;;;;3.44;50.80;100283.41;5050188;28;20090;-53
2022/01/20 08:04:51;;;;;;;58.75;27.65;;;;;;;3.69;48.86;100263.53;5050151;28;20075;-49
2022/01/20 08:07:18;;;;;;;55.83;26.55;;;;;;;4.02;48.77;100284.97;5050137;28;20179;-51
2022/01/20 08:09:44;;;;;;;66.05;27.33;;;;;;;4.03;48.83;100291.06;5049672;28;20563;-53
2022/01/20 08:12:10;;;;;;;57.70;27.33;;;;;;;4.30;48.87;100277.84;5049837;28;20025;-50
2022/01/20 08:14:36;;;;;;;67.22;28.95;;;;;;;4.23;48.02;100275.97;5048567;28;20041;-51
2022/01/20 08:17:02;;;;;;;59.08;28.35;;;;;;;4.33;48.39;100281.16;5050020;28;20480;-54
2022/01/20 08:19:27;;;;;;;55.28;26.40;;;;;;;4.28;48.56;100284.22;5048797;28;20021;-50
2022/01/20 08:21:53;;;;;;;56.45;28.17;;;;;;;4.10;47.89;100274.50;5049643;28;20025;-51
2022/01/20 08:24:18;;;;;;;57.85;28.42;;;;;;;4.35;48.20;100277.41;5049630;28;20029;-55
2022/01/20 08:26:43;;;;;;;58.42;28.45;;;;;;;4.42;48.02;100272.38;5049711;28;20017;-53
2022/01/20 08:29:09;;;;;;;54.53;27.65;;;;;;;4.50;46.90;100283.78;5049933;28;20017;-52
2022/01/20 08:31:34;;;;;;;55.83;27.88;;;;;;;4.56;47.28;100269.19;5049013;28;20036;-50
2022/01/20 08:34:00;;;;;;;60.30;26.60;;;;;;;4.17;48.57;100282.66;5049442;28;20570;-52
2022/01/20 08:36:25;;;;;;;54.72;26.40;;;;;;;4.59;47.78;100270.69;5049887;28;20029;-53
2022/01/20 08:38:51;;;;;;;49.92;25.20;;;;;;;4.55;47.82;100275.44;5049539;28;20108;-50
2022/01/20 08:41:16;;;;;;;56.30;26.55;;;;;;;4.79;47.11;100274.00;5049119;28;20024;-50
2022/01/20 08:43:42;;;;;;;59.92;27.05;;;;;;;4.96;47.20;100278.41;5049458;28;20079;-49
2022/01/20 08:46:08;;;;;;;64.32;28.77;;;;;;;5.04;46.33;100273.16;5049110;28;20405;-52
2022/01/20 08:48:35;;;;;;;57.42;26.50;;;;;;;5.31;45.01;100262.63;5049517;28;20101;-52
2022/01/20 08:51:01;;;;;;;63.30;28.55;;;;;;;5.14;46.22;100259.06;5049020;28;20107;-51
2022/01/20 08:53:26;;;;;;;60.20;27.35;;;;;;;5.19;45.29;100256.78;5049214;28;20032;-49
2022/01/20 08:55:53;;;;;;;57.67;27.67;;;;;;;5.17;46.24;100261.41;5049455;28;20020;-52
2022/01/20 08:58:18;;;;;;;54.53;25.33;;;;;;;5.49;44.41;100253.66;5049100;28;20032;-50
2022/01/20 09:00:44;;;;;;;54.03;25.75;;;;;;;5.46;44.89;100255.78;5047854;28;20021;-51
2022/01/20 09:03:09;;;;;;;45.22;24.20;;;;;;;5.42;44.47;100260.53;5048971;28;20416;-54
2022/01/20 09:05:35;;;;;;;48.80;23.65;;;;;;;5.56;45.33;100260.94;5049065;28;20035;-52
2022/01/20 09:08:01;;;;;;;50.30;23.42;;;;;;;5.78;43.62;100268.28;5049239;28;20130;-48
2022/01/20 09:10:29;;;;;;;48.30;23.27;;;;;;;5.80;42.82;100271.59;5049073;28;20033;-51
2022/01/20 09:15:39;;;;;;;46.90;23.63;;;;;;;6.04;43.76;100281.47;5049282;28;20075;-51
2022/01/20 09:18:06;;;;;;;46.58;23.50;;;;;;;5.99;42.98;100277.66;5048814;28;20485;-51
2022/01/20 09:20:31;;;;;;;42.65;22.98;;;;;;;6.24;42.87;100276.72;5048980;28;20039;-49
2022/01/20 09:22:57;;;;;;;45.90;22.58;;;;;;;6.19;42.16;100271.09;5048669;28;20108;-52
2022/01/20 09:25:23;;;;;;;49.33;22.92;;;;;;;5.68;43.71;100257.03;5048770;28;20025;-49
2022/01/20 09:27:50;;;;;;;53.88;23.63;;;;;;;5.81;42.91;100260.06;5049154;28;20017;-51
2022/01/20 09:30:18;;;;;;;44.90;23.08;;;;;;;6.05;42.77;100258.50;5048777;28;20108;-49
2022/01/20 09:32:56;;;;;;;50.65;23.55;;;;;;;6.44;42.04;100256.09;5049096;28;20021;-49
2022/01/20 09:35:22;;;;;;;44.47;23.55;;;;;;;6.59;41.76;100240.41;5048659;28;20334;-50
2022/01/20 09:37:47;;;;;;;45.03;23.67;;;;;;;6.47;42.28;100247.00;5048426;28;20079;-50
2022/01/20 09:40:13;;;;;;;49.90;24.92;;;;;;;6.53;41.47;100240.22;5048152;28;20028;-49
2022/01/20 09:42:38;;;;;;;53.33;24.42;;;;;;;6.44;41.57;100234.94;5048571;28;20021;-49
2022/01/20 09:45:04;;;;;;;94.22;29.90;;;;;;;6.48;42.42;100221.41;5052825;28;20033;-50
2022/01/20 09:47:29;;;;;;;69.15;26.95;;;;;;;6.51;41.72;100221.91;5052887;28;20025;-52
2022/01/20 09:49:55;;;;;;;52.90;25.33;;;;;;;6.61;41.42;100203.22;5052413;28;20048;-51
2022/01/20 09:52:22;;;;;;;46.35;24.67;;;;;;;6.45;41.50;100190.81;5052538;28;20016;-51
2022/01/20 09:54:47;;;;;;;63.70;31.65;;;;;;;6.79;41.34;100185.31;5052387;28;20331;-51
2022/01/20 09:57:13;;;;;;;90.07;38.83;;;;;;;6.71;41.29;100179.25;5052249;28;20047;-50
2022/01/20 09:59:38;;;;;;;50.70;25.55;;;;;;;6.98;40.87;100172.72;5052264;28;20040;-50
2022/01/20 10:02:07;;;;;;;43.22;22.98;;;;;;;6.73;40.68;100170.13;5052081;28;20029;-51
2022/01/20 10:04:37;;;;;;;45.03;23.92;;;;;;;6.93;39.30;100164.47;5052099;28;20539;-49
2022/01/20 10:07:08;;;;;;;46.70;23.13;;;;;;;6.84;39.58;100147.81;5051979;28;20029;-48
2022/01/20 10:09:39;;;;;;;48.75;23.13;;;;;;;6.84;39.63;100143.31;5051825;28;20128;-49
2022/01/20 10:12:05;;;;;;;41.92;22.55;;;;;;;6.69;39.87;100146.84;5052083;28;20070;-50
2022/01/20 10:14:42;;;;;;;41.30;21.30;;;;;;;6.93;41.02;100130.06;5051899;28;20040;-53
2022/01/20 10:17:33;;;;;;;42.80;21.98;;;;;;;7.03;39.28;100128.88;5052165;28;20446;-52
2022/01/20 10:20:04;;;;;;;;;;;;;;;7.24;39.67;100116.91;5052172;28;20102;-52
2022/01/20 10:22:30;;;;;;;41.25;22.20;;;;;;;6.79;39.86;100115.72;5051684;28;20156;-50
2022/01/20 10:25:11;;;;;;;42.30;22.05;;;;;;;6.28;40.33;100115.16;5051764;28;20409;-48
2022/01/20 10:27:50;;;;;;;44.70;22.00;;;;;;;6.65;40.25;100117.25;5051589;28;20547;-49
2022/01/20 10:30:16;;;;;;;57.58;24.63;;;;;;;6.91;39.87;100108.25;5051560;28;20021;-52
2022/01/20 10:32:49;;;;;;;45.95;24.60;;;;;;;6.79;40.04;100103.31;5051594;28;20020;-52
2022/01/20 10:35:17;;;;;;;46.03;23.83;;;;;;;7.06;39.77;100095.94;5051616;28;20525;-49
2022/01/20 10:37:59;;;;;;;75.78;39.58;;;;;;;6.71;41.52;100097.25;5051664;28;20029;-51
2022/01/20 10:40:25;;;;;;;59.72;28.27;;;;;;;6.70;41.60;100085.00;5051736;28;20020;-52
2022/01/20 10:42:50;;;;;;;53.92;26.08;;;;;;;6.61;42.44;100087.69;5050826;28;20028;-53
2022/01/20 10:45:19;;;;;;;52.60;25.50;;;;;;;6.96;41.77;100084.75;5051706;28;20378;-49
2022/01/20 10:47:49;;;;;;;44.70;24.27;;;;;;;6.98;42.60;100074.81;5051212;28;20020;-50
2022/01/20 10:50:17;;;;;;;48.17;21.73;;;;;;;7.21;42.20;100059.00;5051469;28;20126;-52
2022/01/20 10:52:44;;;;;;;38.13;20.30;;;;;;;6.98;41.88;100059.75;5050070;28;20077;-52
2022/01/20 10:55:23;;;;;;;39.67;19.40;;;;;;;7.08;42.88;100056.91;5030603;28;20028;-49
2022/01/20 10:57:49;;;;;;;44.33;19.65;;;;;;;7.23;42.06;100054.34;5031193;28;20096;-51
2022/01/20 11:00:19;;;;;;;36.75;17.88;;;;;;;6.84;42.43;100048.09;5031259;28;20028;-51
2022/01/20 11:02:47;;;;;;;;;;;;;;;6.57;44.08;100041.41;5031765;28;20037;-52
2022/01/20 11:05:15;;;;;;;32.67;16.88;;;;;;;6.94;43.15;100045.22;5031346;28;19909;-52
2022/01/20 11:07:42;;;;;;;36.08;18.50;;;;;;;7.19;43.26;100037.16;5031361;28;20514;-51
2022/01/20 11:10:10;;;;;;;37.22;18.90;;;;;;;7.50;41.33;100045.09;5031961;28;20041;-52
2022/01/20 11:12:35;;;;;;;30.30;15.27;;;;;;;6.78;42.91;100034.75;5031660;28;20087;-50
2022/01/20 11:15:01;;;;;;;30.92;15.50;;;;;;;6.73;42.49;100037.88;5030799;28;20029;-52
2022/01/20 11:17:28;;;;;;;30.27;15.60;;;;;;;6.70;42.21;100021.53;5030788;28;20097;-52
2022/01/20 11:19:56;;;;;;;29.77;13.63;;;;;;;6.64;42.39;100023.03;5029392;28;20037;-52
2022/01/20 11:22:22;;;;;;;28.27;13.77;;;;;;;6.69;42.54;100028.66;5030608;28;20032;-54
2022/01/20 11:25:02;;;;;;;25.92;13.43;;;;;;;6.63;42.32;100030.16;5030933;28;20022;-48
2022/01/20 11:27:35;;;;;;;22.60;12.45;;;;;;;6.42;42.25;100017.50;5031215;28;20025;-52
2022/01/20 11:30:02;;;;;;;20.85;12.50;;;;;;;7.30;40.94;100014.78;5031058;28;20029;-50
2022/01/20 11:32:29;;;;;;;23.52;13.07;;;;;;;7.15;41.01;100006.75;5013095;28;20143;-51
2022/01/20 11:34:58;;;;;;;25.23;13.88;;;;;;;7.11;42.20;99997.53;5030918;28;20456;-49
2022/01/20 11:37:25;;;;;;;28.92;13.93;;;;;;;7.12;41.54;100004.44;5049282;28;20422;-50
2022/01/20 11:39:54;;;;;;;25.08;13.35;;;;;;;7.16;41.42;100001.28;5050415;28;20036;-51
2022/01/20 11:42:24;;;;;;;21.88;12.82;;;;;;;7.12;41.25;100004.44;5050597;28;20029;-50
2022/01/20 11:44:50;;;;;;;24.95;12.32;;;;;;;7.25;41.14;99996.75;5050594;28;20094;-50
2022/01/20 11:47:16;;;;;;;23.90;13.32;;;;;;;7.12;41.96;99996.50;5050804;28;20083;-49
2022/01/20 11:49:44;;;;;;;21.75;12.55;;;;;;;7.27;41.54;99980.72;5050336;28;20052;-49
2022/01/20 11:52:10;;;;;;;25.65;13.32;;;;;;;7.42;41.06;99982.44;5050446;28;20416;-52
2022/01/20 11:54:40;;;;;;;24.85;13.80;;;;;;;7.50;40.28;99978.91;5050410;28;20509;-51
2022/01/20 11:57:13;;;;;;;24.17;12.13;;;;;;;7.58;40.63;99968.22;5050263;28;20553;-51
2022/01/20 12:00:00;;;;;;;23.98;11.98;;;;;;;7.81;39.97;99967.38;5050530;28;20108;-51
2022/01/20 12:02:31;;;;;;;22.23;12.55;;;;;;;8.22;39.08;99967.78;5050534;28;20116;-50
2022/01/20 12:04:57;;;;;;;23.95;11.00;;;;;;;7.90;39.11;99966.28;5050219;28;20476;-50
2022/01/20 12:07:24;;;;;;;22.90;11.02;;;;;;;7.94;38.79;99959.63;5050221;28;20029;-50
2022/01/20 12:09:50;;;;;;;21.05;10.75;;;;;;;7.40;39.81;99955.28;5049759;28;20490;-52